Hlavní strana
METAR-TAF:

METAR-TAF

Letiště :

Joensuu, Finsko

zeměpisná šířka: 62-40N, zeměpisná délka: 029-38E, výška: 119 m

Aktuální stav počasí

Zpráva byla vytvořena před 12 minutami, v 12:20 UTC
Východoseverovýchodní vítr 9 kt s nárazy do 19 kt, proměnlivý mezi severním a východním
Teplota 20°C
Vlhkost vzduchu 35%
Tlak 1006 hPa
Viditelnost 10 km a více
Žádná oblačnost pod 1500 m, nevyskytují se cumulonimby.

METAR: EFJO 041220Z AUTO 06009G19KT 010V100 CAVOK 20/04 Q1006

Čas: 15:32 (12:32 UTC)


TAF: chybějící

Stav a předpovědi počasí z více než 4 000 letišť (zprávy METAR a TAF).

Červené a žluté tečky na mapě představují dostupné meteorologické stanice.

Když kurzor umístíte na tečku, zobrazí se název stanice.

Pak kliknutím zobrazíte stav a předpověď počasí.

Chcete-li změnit mapu, kliknutím na zelené tlačítko se znaménkem +mapu přiblížíte, kliknutím na zelené tlačítko se znaménkem – mapu oddálíte a kliknutím na zelené šipky přejdete na sousední mapy.


METAR-TAF: